Time;durP1;ratioP1;P1;durP2;ratioP2;P2;SDS_P1;SDS_P2;PMS_P1;PMS_P2;Temp;Humidity;BMP_temperature;BMP_pressure;BME280_temperature;BME280_humidity;BME280_pressure;Samples;Min_cycle;Max_cycle;Signal;HPM_P1;HPM_P2
2023/05/05 00:00:52;;;;;;;5.28;2.92;;;14.30;99.90;;;;;;5020679;28;20503;-34
2023/05/05 00:03:19;;;;;;;7.20;3.10;;;14.30;99.90;;;;;;5016782;28;20076;-33
2023/05/05 00:05:46;;;;;;;5.55;2.75;;;14.30;99.90;;;;;;5032654;28;20524;-34
2023/05/05 00:08:11;;;;;;;7.05;3.47;;;14.30;99.90;;;;;;5029954;28;20088;-34
2023/05/05 00:10:37;;;;;;;6.72;3.22;;;14.20;99.90;;;;;;5033118;28;20088;-34
2023/05/05 00:13:03;;;;;;;7.25;3.33;;;14.30;99.90;;;;;;5034730;28;20057;-34
2023/05/05 00:15:28;;;;;;;6.93;3.03;;;14.30;99.90;;;;;;5025633;28;20057;-34
2023/05/05 00:17:54;;;;;;;8.77;3.72;;;14.20;99.90;;;;;;5027817;28;20099;-34
2023/05/05 00:20:20;;;;;;;8.07;3.50;;;14.20;99.90;;;;;;5019253;28;20054;-34
2023/05/05 00:22:45;;;;;;;5.40;2.90;;;14.20;99.90;;;;;;5026859;28;20046;-34
2023/05/05 00:25:11;;;;;;;7.35;3.25;;;14.20;99.90;;;;;;5033744;28;20137;-34
2023/05/05 00:27:36;;;;;;;7.00;3.03;;;14.20;99.90;;;;;;5016277;28;20045;-34
2023/05/05 00:30:02;;;;;;;6.38;3.13;;;14.20;99.90;;;;;;5028947;28;20511;-34
2023/05/05 00:32:28;;;;;;;7.95;3.40;;;14.10;99.90;;;;;;5020466;28;20430;-34
2023/05/05 00:34:55;;;;;;;7.20;3.30;;;14.10;99.90;;;;;;5024484;28;20052;-35
2023/05/05 00:37:20;;;;;;;8.45;3.33;;;14.00;99.90;;;;;;5040502;28;20044;-34
2023/05/05 00:39:46;;;;;;;5.88;3.28;;;14.00;99.90;;;;;;5020396;28;20053;-34
2023/05/05 00:42:12;;;;;;;7.72;3.50;;;14.00;99.90;;;;;;5024232;28;20042;-34
2023/05/05 00:44:40;;;;;;;5.30;2.95;;;14.00;99.90;;;;;;5024813;28;20084;-34
2023/05/05 00:47:07;;;;;;;5.93;3.58;;;14.00;99.90;;;;;;5032449;28;20059;-34
2023/05/05 00:49:34;;;;;;;5.28;2.97;;;13.90;99.90;;;;;;5032934;28;20048;-34
2023/05/05 00:52:01;;;;;;;6.20;3.10;;;13.90;99.90;;;;;;5017047;28;20048;-34
2023/05/05 00:54:27;;;;;;;8.45;3.95;;;13.90;99.90;;;;;;5035392;28;20045;-34
2023/05/05 00:56:53;;;;;;;7.85;3.35;;;13.90;99.90;;;;;;5023973;28;20057;-34
2023/05/05 00:59:19;;;;;;;6.60;3.33;;;13.90;99.90;;;;;;5031409;28;20049;-34
2023/05/05 01:01:45;;;;;;;6.20;3.58;;;13.90;99.90;;;;;;5026932;28;20061;-34
2023/05/05 01:04:10;;;;;;;5.63;3.22;;;13.90;99.90;;;;;;5024715;28;20041;-35
2023/05/05 01:06:36;;;;;;;8.60;3.75;;;13.90;99.90;;;;;;5039605;28;20049;-34
2023/05/05 01:09:13;;;;;;;6.65;3.00;;;13.90;99.90;;;;;;5035557;28;20052;-35
2023/05/05 01:11:59;;;;;;;6.00;3.40;;;13.90;99.90;;;;;;5039316;28;20057;-35
2023/05/05 01:14:40;;;;;;;5.78;3.03;;;13.90;99.90;;;;;;5033768;28;20045;-34
2023/05/05 01:17:17;;;;;;;5.47;3.25;;;13.90;99.90;;;;;;5036631;28;20045;-35
2023/05/05 01:20:07;;;;;;;6.55;3.00;;;13.80;99.90;;;;;;5032051;28;20487;-34
2023/05/05 01:22:41;;;;;;;6.80;3.10;;;13.80;99.90;;;;;;5034920;28;20521;-34
2023/05/05 01:25:28;;;;;;;6.43;3.35;;;13.80;99.90;;;;;;5034257;28;20036;-34
2023/05/05 01:28:10;;;;;;;7.35;3.60;;;13.70;99.90;;;;;;5022061;28;20141;-34
2023/05/05 01:30:47;;;;;;;7.68;3.67;;;13.70;99.90;;;;;;5035236;28;20090;-33
2023/05/05 01:33:16;;;;;;;7.32;3.42;;;13.70;99.90;;;;;;5023510;28;20054;-34
2023/05/05 01:35:51;;;;;;;6.63;3.70;;;13.70;99.90;;;;;;5025656;28;20470;-34
2023/05/05 01:38:21;;;;;;;5.85;3.10;;;13.70;99.90;;;;;;5032432;28;20034;-34
2023/05/05 01:41:00;;;;;;;7.15;4.05;;;13.70;99.90;;;;;;5032499;28;20057;-34
2023/05/05 01:43:29;;;;;;;7.10;3.47;;;13.60;99.90;;;;;;5019250;28;20070;-34
2023/05/05 01:45:57;;;;;;;6.55;3.58;;;13.60;99.90;;;;;;5020632;28;20054;-34
2023/05/05 01:48:24;;;;;;;6.03;3.97;;;13.60;99.90;;;;;;5014854;28;20053;-34
2023/05/05 01:50:52;;;;;;;7.95;3.17;;;13.60;99.90;;;;;;5019976;28;20061;-35
2023/05/05 01:53:18;;;;;;;6.40;3.55;;;13.60;99.90;;;;;;5013306;28;20160;-34
2023/05/05 01:55:48;;;;;;;6.80;3.67;;;13.60;99.90;;;;;;5011986;28;20056;-35
2023/05/05 01:58:15;;;;;;;6.55;3.85;;;13.60;99.90;;;;;;5017752;28;20049;-34
2023/05/05 02:00:42;;;;;;;7.15;4.03;;;13.60;99.90;;;;;;5022785;28;20049;-34
2023/05/05 02:03:09;;;;;;;6.63;3.90;;;13.60;99.90;;;;;;5020301;28;20069;-34
2023/05/05 02:05:38;;;;;;;8.20;4.45;;;13.60;99.90;;;;;;5033473;28;20037;-33
2023/05/05 02:08:07;;;;;;;8.25;3.50;;;13.50;99.90;;;;;;5028046;28;20496;-34
2023/05/05 02:10:33;;;;;;;7.55;4.40;;;13.50;99.90;;;;;;5027708;28;20045;-34
2023/05/05 02:13:03;;;;;;;7.03;3.75;;;13.50;99.90;;;;;;5029987;28;20057;-33
2023/05/05 02:15:30;;;;;;;7.80;4.10;;;13.50;99.90;;;;;;5033598;28;20103;-33
2023/05/05 02:17:58;;;;;;;7.20;3.38;;;13.50;99.90;;;;;;5035527;28;20096;-35
2023/05/05 02:20:26;;;;;;;8.75;4.57;;;13.40;99.90;;;;;;5029403;28;21251;-34
2023/05/05 02:22:52;;;;;;;7.10;3.05;;;13.40;99.90;;;;;;5022816;28;20058;-35
2023/05/05 02:25:18;;;;;;;7.63;4.05;;;13.40;99.90;;;;;;5015040;28;20053;-34
2023/05/05 02:27:46;;;;;;;6.22;4.03;;;13.40;99.90;;;;;;5014943;28;20065;-34
2023/05/05 02:30:16;;;;;;;8.05;4.50;;;13.30;99.90;;;;;;5026641;28;20065;-34
2023/05/05 02:32:55;;;;;;;7.50;4.25;;;13.30;99.90;;;;;;5031479;28;20684;-34
2023/05/05 02:35:30;;;;;;;5.43;3.50;;;13.30;99.90;;;;;;5025077;28;20633;-34
2023/05/05 02:38:01;;;;;;;8.20;3.85;;;13.30;99.90;;;;;;5014551;28;20132;-34
2023/05/05 02:40:30;;;;;;;6.68;4.07;;;13.30;99.90;;;;;;5015179;28;20155;-34
2023/05/05 02:42:59;;;;;;;7.88;4.25;;;13.30;99.90;;;;;;5021931;28;20772;-34
2023/05/05 02:45:27;;;;;;;6.75;4.20;;;13.30;99.90;;;;;;5018828;28;20499;-33
2023/05/05 02:47:53;;;;;;;7.03;3.50;;;13.30;99.90;;;;;;5027434;28;20053;-34
2023/05/05 02:50:19;;;;;;;10.82;4.93;;;13.30;99.90;;;;;;5038209;28;20403;-33
2023/05/05 02:52:45;;;;;;;9.55;4.95;;;13.30;99.90;;;;;;5034884;28;20483;-34
2023/05/05 02:55:12;;;;;;;9.65;4.97;;;13.40;99.90;;;;;;5029606;28;20495;-33
2023/05/05 02:57:50;;;;;;;10.63;5.03;;;13.30;99.90;;;;;;5038787;28;20053;-34
2023/05/05 03:00:22;;;;;;;8.15;4.88;;;13.20;99.90;;;;;;5025957;28;20053;-34
2023/05/05 03:03:12;;;;;;;10.15;5.45;;;13.10;99.90;;;;;;5016837;28;20054;-34
2023/05/05 03:06:06;;;;;;;9.27;4.10;;;13.00;99.90;;;;;;5029932;28;20061;-34
2023/05/05 03:08:34;;;;;;;8.25;4.47;;;13.00;99.90;;;;;;5035052;28;20695;-34
2023/05/05 03:11:17;;;;;;;11.68;6.22;;;13.00;99.90;;;;;;5034106;28;20139;-35
2023/05/05 03:13:43;;;;;;;8.35;5.05;;;13.00;99.90;;;;;;5028424;28;20057;-35
2023/05/05 03:16:10;;;;;;;8.82;5.32;;;12.90;99.90;;;;;;5021028;28;20575;-35
2023/05/05 03:18:38;;;;;;;9.40;5.57;;;12.90;99.90;;;;;;5021454;28;20465;-34
2023/05/05 03:21:07;;;;;;;8.90;6.00;;;12.90;99.90;;;;;;5028913;28;20080;-33
2023/05/05 03:23:35;;;;;;;10.85;5.90;;;12.90;99.90;;;;;;5041700;28;20045;-34
2023/05/05 03:26:00;;;;;;;9.20;4.30;;;13.00;99.90;;;;;;5035151;28;20060;-34
2023/05/05 03:28:26;;;;;;;7.28;4.75;;;13.00;99.90;;;;;;5038256;28;20054;-34
2023/05/05 03:30:52;;;;;;;9.98;5.95;;;12.90;99.90;;;;;;5033738;28;21600;-34
2023/05/05 03:33:18;;;;;;;10.75;6.43;;;12.90;99.90;;;;;;5024931;28;20183;-34
2023/05/05 03:35:44;;;;;;;15.45;7.13;;;12.90;99.90;;;;;;5015444;28;20137;-33
2023/05/05 03:38:10;;;;;;;10.93;6.10;;;12.90;99.90;;;;;;5015584;28;20053;-33
2023/05/05 03:40:36;;;;;;;10.57;6.60;;;12.80;99.90;;;;;;5020104;28;20054;-34
2023/05/05 03:43:01;;;;;;;12.00;6.22;;;12.80;99.90;;;;;;5019918;28;20057;-34
2023/05/05 03:45:27;;;;;;;10.63;6.18;;;12.80;99.90;;;;;;5013908;28;20115;-34
2023/05/05 03:47:52;;;;;;;8.60;5.93;;;12.80;99.90;;;;;;5017087;28;20056;-34
2023/05/05 03:50:18;;;;;;;9.65;6.40;;;12.80;99.90;;;;;;5021541;28;20053;-34
2023/05/05 03:52:44;;;;;;;10.48;6.75;;;12.70;99.90;;;;;;5034296;28;20452;-34
2023/05/05 03:55:09;;;;;;;12.90;6.50;;;12.70;99.90;;;;;;5029442;28;20053;-34
2023/05/05 03:57:35;;;;;;;11.00;6.00;;;12.80;99.90;;;;;;5016123;28;20050;-34
2023/05/05 04:00:01;;;;;;;8.00;5.85;;;12.70;99.90;;;;;;5038975;28;20045;-34
2023/05/05 04:02:26;;;;;;;9.40;5.63;;;12.70;99.90;;;;;;5028377;28;20042;-34
2023/05/05 04:04:52;;;;;;;10.02;6.10;;;12.70;99.90;;;;;;5021806;28;20454;-34
2023/05/05 04:07:17;;;;;;;9.82;6.47;;;12.60;99.90;;;;;;5015943;28;20050;-35
2023/05/05 04:09:43;;;;;;;11.15;6.97;;;12.60;99.90;;;;;;5030819;28;20045;-34
2023/05/05 04:12:10;;;;;;;10.63;7.35;;;12.50;99.90;;;;;;5016920;28;20128;-35
2023/05/05 04:14:36;;;;;;;10.32;5.75;;;12.50;99.90;;;;;;5037376;28;20852;-35
2023/05/05 04:17:01;;;;;;;9.98;5.53;;;12.40;99.90;;;;;;5020729;28;20392;-35
2023/05/05 04:19:27;;;;;;;10.65;6.10;;;12.30;99.90;;;;;;5018359;28;20397;-35
2023/05/05 04:21:53;;;;;;;8.90;6.10;;;12.30;99.90;;;;;;5033808;28;20097;-35
2023/05/05 04:24:23;;;;;;;9.77;5.90;;;12.30;99.90;;;;;;5023276;28;20423;-35
2023/05/05 04:26:52;;;;;;;9.88;7.15;;;12.30;99.90;;;;;;5027447;28;20053;-35
2023/05/05 04:29:18;;;;;;;8.85;6.57;;;12.30;99.90;;;;;;5040123;28;20044;-35
2023/05/05 04:31:44;;;;;;;13.27;7.53;;;12.30;99.90;;;;;;5045957;28;20064;-34
2023/05/05 04:34:10;;;;;;;9.05;6.00;;;12.20;99.90;;;;;;5038495;28;20068;-35
2023/05/05 04:36:36;;;;;;;13.43;6.85;;;12.20;99.90;;;;;;5040297;28;20474;-35
2023/05/05 04:39:02;;;;;;;10.90;6.80;;;12.20;99.90;;;;;;5032326;28;20519;-34
2023/05/05 04:41:28;;;;;;;8.88;6.22;;;12.20;99.90;;;;;;5016556;28;20057;-34
2023/05/05 04:43:56;;;;;;;11.93;5.53;;;12.20;99.90;;;;;;5014988;28;20072;-35
2023/05/05 04:46:24;;;;;;;9.45;7.07;;;12.20;99.90;;;;;;5019966;28;20045;-35
2023/05/05 04:48:49;;;;;;;8.57;5.80;;;12.20;99.90;;;;;;5018787;28;20152;-35
2023/05/05 04:51:15;;;;;;;10.00;5.63;;;12.10;99.90;;;;;;5018720;28;20129;-35
2023/05/05 04:53:41;;;;;;;12.02;6.85;;;12.10;99.90;;;;;;5019447;28;20064;-35
2023/05/05 04:56:06;;;;;;;7.90;5.22;;;12.00;99.90;;;;;;5035811;28;20148;-35
2023/05/05 04:58:32;;;;;;;12.43;6.60;;;12.00;99.90;;;;;;5017485;28;20129;-34
2023/05/05 05:00:58;;;;;;;9.73;6.05;;;12.00;99.90;;;;;;5018384;28;20052;-34
2023/05/05 05:03:23;;;;;;;9.18;6.25;;;11.90;99.90;;;;;;5011596;28;20054;-36
2023/05/05 05:05:49;;;;;;;12.75;7.25;;;11.90;99.90;;;;;;5009993;28;21175;-35
2023/05/05 05:08:16;;;;;;;13.43;6.50;;;11.90;99.90;;;;;;5010642;28;20579;-35
2023/05/05 05:10:42;;;;;;;11.25;6.45;;;11.90;99.90;;;;;;5011219;28;20042;-35
2023/05/05 05:13:08;;;;;;;13.98;7.22;;;12.00;99.90;;;;;;5013166;28;20397;-36
2023/05/05 05:15:33;;;;;;;10.10;6.65;;;12.10;99.90;;;;;;5010225;28;20057;-34
2023/05/05 05:17:59;;;;;;;10.45;6.88;;;12.20;99.90;;;;;;5032040;28;20140;-34
2023/05/05 05:20:25;;;;;;;10.57;6.85;;;12.30;99.90;;;;;;5016163;28;20069;-35
2023/05/05 05:22:50;;;;;;;9.95;6.32;;;12.40;99.90;;;;;;5011333;28;20060;-35
2023/05/05 05:25:16;;;;;;;9.52;6.43;;;12.50;99.90;;;;;;5013358;28;20125;-35
2023/05/05 05:27:41;;;;;;;9.13;6.35;;;12.50;99.90;;;;;;5011484;28;20050;-35
2023/05/05 05:30:08;;;;;;;10.57;7.05;;;12.60;99.90;;;;;;5028843;28;20048;-35
2023/05/05 05:32:33;;;;;;;9.68;6.32;;;12.60;99.90;;;;;;5032512;28;20088;-35
2023/05/05 05:34:59;;;;;;;9.40;6.03;;;12.60;99.90;;;;;;5008848;28;20077;-35
2023/05/05 05:37:28;;;;;;;10.68;7.30;;;12.60;99.90;;;;;;5022670;28;20447;-35
2023/05/05 05:39:55;;;;;;;13.02;7.15;;;12.70;99.90;;;;;;5030902;28;20064;-35
2023/05/05 05:42:21;;;;;;;14.18;7.00;;;12.70;99.90;;;;;;5030015;28;20474;-35
2023/05/05 05:44:47;;;;;;;14.50;7.45;;;12.70;99.90;;;;;;5018846;28;20119;-35
2023/05/05 05:47:13;;;;;;;9.15;6.13;;;12.70;99.90;;;;;;5011866;28;20073;-35
2023/05/05 05:49:38;;;;;;;9.48;6.07;;;12.80;99.90;;;;;;5027024;28;20041;-34
2023/05/05 05:52:04;;;;;;;9.00;6.53;;;12.90;99.90;;;;;;5029491;28;20506;-34
2023/05/05 05:54:33;;;;;;;10.05;5.72;;;13.00;99.90;;;;;;5011616;28;20053;-34
2023/05/05 05:56:58;;;;;;;8.07;5.57;;;13.00;99.90;;;;;;5031551;28;20136;-34
2023/05/05 05:59:24;;;;;;;13.00;6.60;;;13.10;99.90;;;;;;5022439;28;20370;-34
2023/05/05 06:01:50;;;;;;;7.65;5.93;;;13.20;99.90;;;;;;5009268;28;20068;-34
2023/05/05 06:04:16;;;;;;;12.23;6.05;;;13.30;99.90;;;;;;5026072;28;20088;-34
2023/05/05 06:06:41;;;;;;;11.55;7.15;;;13.30;99.90;;;;;;5032906;28;20430;-34
2023/05/05 06:09:07;;;;;;;8.43;6.05;;;13.40;99.90;;;;;;5032811;28;20563;-34
2023/05/05 06:11:33;;;;;;;10.68;6.80;;;13.40;99.90;;;;;;5016465;28;20384;-34
2023/05/05 06:13:59;;;;;;;10.43;6.55;;;13.50;99.90;;;;;;5016953;28;20057;-34
2023/05/05 06:16:25;;;;;;;14.55;7.10;;;13.50;99.90;;;;;;5013348;28;20531;-34
2023/05/05 06:18:50;;;;;;;9.65;6.20;;;13.60;99.90;;;;;;5007950;28;20061;-34
2023/05/05 06:21:19;;;;;;;9.20;6.82;;;13.60;99.90;;;;;;5023412;28;20083;-34
2023/05/05 06:23:45;;;;;;;10.93;6.07;;;13.70;99.90;;;;;;5016980;28;20049;-36
2023/05/05 06:26:11;;;;;;;9.98;5.90;;;13.70;99.90;;;;;;5014545;28;20046;-34
2023/05/05 06:28:36;;;;;;;8.90;6.28;;;13.80;99.90;;;;;;5014089;28;20397;-34
2023/05/05 06:31:02;;;;;;;11.27;7.53;;;13.80;99.90;;;;;;5018734;28;20122;-35
2023/05/05 06:33:28;;;;;;;12.27;7.78;;;13.90;99.90;;;;;;5023061;28;20060;-35
2023/05/05 06:35:54;;;;;;;9.85;6.65;;;13.90;99.90;;;;;;5032866;28;20056;-34
2023/05/05 06:38:20;;;;;;;10.57;6.45;;;14.00;99.90;;;;;;5032535;28;20599;-34
2023/05/05 06:40:48;;;;;;;12.45;6.68;;;14.10;99.90;;;;;;5035751;28;20057;-35
2023/05/05 06:43:15;;;;;;;9.85;6.90;;;14.20;99.90;;;;;;5036076;28;20052;-35
2023/05/05 06:45:40;;;;;;;14.27;8.02;;;14.30;99.90;;;;;;5033756;28;20053;-35
2023/05/05 06:48:06;;;;;;;9.88;7.10;;;14.40;99.90;;;;;;5033127;28;20041;-34
2023/05/05 06:50:32;;;;;;;11.75;6.75;;;14.50;99.90;;;;;;5025859;28;20045;-34
2023/05/05 06:52:57;;;;;;;12.85;8.23;;;14.50;99.90;;;;;;5011697;28;20291;-34
2023/05/05 06:55:23;;;;;;;13.63;7.95;;;14.70;99.90;;;;;;5024254;28;20402;-35
2023/05/05 06:57:49;;;;;;;13.13;8.00;;;14.80;99.90;;;;;;5025441;28;20052;-34
2023/05/05 07:00:16;;;;;;;15.00;7.78;;;14.90;99.90;;;;;;5035447;28;20045;-35
2023/05/05 07:02:42;;;;;;;12.30;8.02;;;14.90;99.90;;;;;;5030161;28;20049;-35
2023/05/05 07:05:07;;;;;;;14.23;8.95;;;15.00;99.90;;;;;;5024922;28;20096;-35
2023/05/05 07:07:34;;;;;;;13.30;8.80;;;15.10;99.90;;;;;;5029876;28;20138;-35
2023/05/05 07:09:59;;;;;;;15.98;9.48;;;15.10;99.90;;;;;;5022089;28;20077;-35
2023/05/05 07:12:27;;;;;;;17.15;8.55;;;15.10;99.90;;;;;;5041828;28;20083;-35
2023/05/05 07:14:53;;;;;;;12.98;9.05;;;15.10;99.90;;;;;;5029740;28;20057;-35
2023/05/05 07:17:18;;;;;;;14.27;8.95;;;15.20;99.90;;;;;;5032542;28;20056;-34
2023/05/05 07:19:44;;;;;;;15.80;9.88;;;15.30;99.90;;;;;;5045476;28;20453;-35
2023/05/05 07:22:10;;;;;;;15.23;9.43;;;15.30;99.90;;;;;;5028488;28;20497;-35
2023/05/05 07:24:35;;;;;;;15.23;9.25;;;15.40;99.90;;;;;;5029629;28;20045;-35
2023/05/05 07:27:01;;;;;;;13.30;9.23;;;15.50;99.90;;;;;;5033140;28;20080;-35
2023/05/05 07:29:27;;;;;;;18.42;9.68;;;15.50;99.90;;;;;;5035291;28;20050;-35
2023/05/05 07:31:52;;;;;;;16.15;10.07;;;15.60;99.90;;;;;;5043672;28;20102;-35
2023/05/05 07:34:18;;;;;;;19.60;10.40;;;15.70;99.90;;;;;;5035000;28;20458;-35
2023/05/05 07:36:44;;;;;;;11.48;7.70;;;15.80;99.90;;;;;;5010886;28;20565;-35
2023/05/05 07:39:09;;;;;;;15.43;8.73;;;15.80;99.90;;;;;;5022170;28;20475;-35
2023/05/05 07:41:35;;;;;;;14.40;9.18;;;15.90;99.90;;;;;;5035247;28;20057;-35
2023/05/05 07:44:01;;;;;;;15.48;8.77;;;16.00;99.90;;;;;;5031254;28;20380;-35
2023/05/05 07:46:26;;;;;;;15.75;8.32;;;16.10;99.90;;;;;;5031757;28;20085;-35
2023/05/05 07:48:52;;;;;;;12.07;7.85;;;16.20;99.90;;;;;;5034060;28;20529;-36
2023/05/05 07:51:17;;;;;;;13.27;8.57;;;16.30;99.90;;;;;;5029380;28;20081;-35
2023/05/05 07:53:43;;;;;;;12.60;8.48;;;16.40;99.90;;;;;;5015733;28;20050;-35
2023/05/05 07:56:09;;;;;;;12.55;8.43;;;16.50;99.90;;;;;;5005487;28;20095;-35
2023/05/05 07:58:35;;;;;;;16.48;9.25;;;16.50;99.90;;;;;;5006960;28;20106;-36
2023/05/05 08:01:01;;;;;;;16.42;8.48;;;16.60;99.90;;;;;;5013352;28;20058;-36
2023/05/05 08:03:26;;;;;;;11.35;7.63;;;16.70;99.90;;;;;;5026306;28;20566;-36
2023/05/05 08:05:54;;;;;;;15.85;8.05;;;16.70;99.90;;;;;;5017635;28;20053;-35
2023/05/05 08:08:23;;;;;;;11.88;7.63;;;16.80;99.90;;;;;;5016806;28;20411;-35
2023/05/05 08:10:50;;;;;;;14.13;7.05;;;16.90;99.90;;;;;;5030605;28;20080;-35
2023/05/05 08:13:16;;;;;;;10.90;6.63;;;17.00;99.90;;;;;;5027253;28;20053;-36
2023/05/05 08:15:43;;;;;;;9.48;6.57;;;17.00;99.90;;;;;;5009653;28;20056;-36
2023/05/05 08:18:09;;;;;;;13.57;6.43;;;17.00;99.90;;;;;;5011250;28;20495;-35
2023/05/05 08:20:35;;;;;;;9.30;5.85;;;16.90;99.90;;;;;;5019022;28;20053;-36
2023/05/05 08:23:01;;;;;;;9.65;5.88;;;16.80;99.90;;;;;;5028579;28;20059;-35
2023/05/05 08:25:26;;;;;;;12.18;6.38;;;16.70;99.90;;;;;;5037448;28;20057;-36
2023/05/05 08:27:52;;;;;;;12.02;6.15;;;16.70;99.90;;;;;;5039052;28;20529;-36
2023/05/05 08:30:20;;;;;;;9.48;5.20;;;16.80;99.90;;;;;;5016301;28;20070;-36
2023/05/05 08:32:45;;;;;;;10.18;4.80;;;17.00;99.90;;;;;;5023074;28;20045;-35
2023/05/05 08:35:11;;;;;;;9.45;5.25;;;17.10;99.90;;;;;;5014745;28;20076;-36
2023/05/05 08:37:37;;;;;;;9.48;4.45;;;17.20;99.90;;;;;;5036058;28;20045;-36
2023/05/05 08:40:03;;;;;;;7.30;4.35;;;17.30;99.90;;;;;;5025505;28;20041;-35
2023/05/05 08:42:29;;;;;;;8.93;5.32;;;17.40;99.90;;;;;;5030364;28;20067;-36
2023/05/05 08:44:55;;;;;;;7.38;4.50;;;17.40;99.90;;;;;;5020705;28;20049;-36
2023/05/05 08:47:21;;;;;;;9.52;4.85;;;17.40;99.90;;;;;;5011226;28;20038;-36
2023/05/05 08:49:47;;;;;;;8.00;4.90;;;17.40;99.90;;;;;;5011048;28;20062;-35
2023/05/05 08:52:21;;;;;;;7.50;4.00;;;17.50;99.90;;;;;;5024391;28;20491;-36
2023/05/05 08:55:00;;;;;;;7.65;3.88;;;17.60;99.90;;;;;;5018157;28;20053;-36
2023/05/05 08:57:47;;;;;;;9.02;4.15;;;17.70;99.90;;;;;;5028020;28;20050;-36
2023/05/05 09:00:14;;;;;;;6.50;4.22;;;17.70;99.90;;;;;;5030542;28;20057;-36
2023/05/05 09:02:41;;;;;;;7.80;4.50;;;17.70;99.90;;;;;;5034633;28;20041;-36
2023/05/05 09:05:07;;;;;;;9.32;3.88;;;17.70;99.90;;;;;;5015223;28;20050;-36
2023/05/05 09:07:34;;;;;;;7.00;3.60;;;17.70;99.90;;;;;;5007599;28;20096;-35
2023/05/05 09:10:01;;;;;;;6.60;3.75;;;17.90;99.90;;;;;;5011967;28;20049;-35
2023/05/05 09:12:29;;;;;;;6.95;3.50;;;18.00;99.90;;;;;;5023025;28;20260;-36
2023/05/05 09:14:55;;;;;;;7.80;3.92;;;18.00;99.90;;;;;;5032399;28;20052;-36
2023/05/05 09:17:25;;;;;;;8.35;4.00;;;18.10;99.90;;;;;;5028463;28;20067;-36
2023/05/05 09:20:06;;;;;;;9.07;4.15;;;18.20;99.90;;;;;;5032202;28;20132;-36
2023/05/05 09:22:50;;;;;;;8.45;4.13;;;18.30;99.90;;;;;;5031447;28;20063;-36
2023/05/05 09:25:17;;;;;;;8.63;4.05;;;18.30;99.90;;;;;;5033896;28;20064;-36
2023/05/05 09:27:48;;;;;;;7.45;4.55;;;18.40;99.90;;;;;;5028889;28;20444;-36
2023/05/05 09:30:16;;;;;;;8.13;4.40;;;18.60;99.90;;;;;;5028115;28;20061;-36
2023/05/05 09:32:52;;;;;;;9.32;4.68;;;18.80;99.90;;;;;;5015507;28;22345;-36
2023/05/05 09:35:19;;;;;;;7.40;4.20;;;18.70;99.90;;;;;;5011278;28;20052;-36
2023/05/05 09:37:45;;;;;;;10.52;5.40;;;18.80;99.90;;;;;;5017710;28;20171;-36
2023/05/05 09:40:17;;;;;;;8.77;4.97;;;18.90;99.90;;;;;;5009355;28;20053;-35
2023/05/05 09:42:43;;;;;;;7.05;4.78;;;19.10;99.90;;;;;;5017726;28;20503;-35
2023/05/05 09:45:18;;;;;;;9.75;4.78;;;19.20;99.90;;;;;;5025548;28;20080;-35
2023/05/05 09:47:45;;;;;;;11.32;5.28;;;19.40;99.90;;;;;;5032607;28;20523;-35
2023/05/05 09:50:14;;;;;;;8.30;4.80;;;19.30;99.90;;;;;;5020400;28;20049;-35
2023/05/05 09:52:41;;;;;;;7.07;4.05;;;19.30;99.90;;;;;;5018246;28;20060;-35
2023/05/05 09:55:16;;;;;;;8.50;3.53;;;19.40;99.90;;;;;;5031402;28;20057;-35
2023/05/05 09:57:42;;;;;;;5.90;3.28;;;19.70;99.90;;;;;;5030221;28;20053;-35
2023/05/05 10:00:09;;;;;;;10.25;3.50;;;19.90;99.90;;;;;;5026782;28;20054;-35
2023/05/05 10:02:38;;;;;;;5.95;2.58;;;19.90;99.90;;;;;;5013894;28;20049;-35
2023/05/05 10:05:23;;;;;;;7.53;3.20;;;20.10;99.90;;;;;;5037025;28;20507;-35
2023/05/05 10:07:50;;;;;;;5.22;2.92;;;20.20;99.90;;;;;;5011745;28;20068;-35
2023/05/05 10:10:17;;;;;;;7.35;3.40;;;20.30;99.90;;;;;;5020089;28;20582;-35
2023/05/05 10:12:45;;;;;;;7.75;3.33;;;20.30;99.90;;;;;;5021068;28;20041;-35
2023/05/05 10:15:11;;;;;;;5.68;2.53;;;20.40;99.90;;;;;;5008365;28;20496;-35
2023/05/05 10:17:47;;;;;;;6.03;2.40;;;20.40;99.90;;;;;;5016265;28;20061;-35
2023/05/05 10:20:14;;;;;;;4.38;1.73;;;20.30;99.90;;;;;;5015970;28;20058;-35
2023/05/05 10:22:48;;;;;;;6.40;2.95;;;20.30;99.90;;;;;;5007782;28;20500;-35
2023/05/05 10:25:16;;;;;;;4.93;2.30;;;20.20;99.90;;;;;;5019518;28;20046;-35
2023/05/05 10:27:44;;;;;;;5.03;2.55;;;20.10;99.90;;;;;;5010687;28;20511;-35
2023/05/05 10:30:23;;;;;;;5.90;2.83;;;20.00;99.90;;;;;;5010766;28;20052;-35
2023/05/05 10:32:50;;;;;;;5.97;2.75;;;19.90;99.90;;;;;;5028446;28;20054;-35
2023/05/05 10:35:21;;;;;;;5.63;2.72;;;19.80;99.90;;;;;;5028997;28;20828;-35
2023/05/05 10:37:47;;;;;;;5.97;2.10;;;19.80;99.90;;;;;;5036808;28;20041;-35
2023/05/05 10:40:14;;;;;;;3.95;2.10;;;19.70;99.90;;;;;;5031505;28;20069;-35
2023/05/05 10:42:40;;;;;;;4.55;2.10;;;19.80;99.90;;;;;;5016058;28;20451;-35
2023/05/05 10:45:06;;;;;;;4.80;1.95;;;20.00;99.90;;;;;;5016401;28;20496;-35
2023/05/05 10:47:33;;;;;;;5.38;1.60;;;20.20;99.90;;;;;;5015928;28;20068;-35
2023/05/05 10:50:11;;;;;;;3.15;1.40;;;20.20;99.90;;;;;;5031802;28;20042;-35
2023/05/05 10:52:52;;;;;;;5.72;2.10;;;20.20;99.90;;;;;;5026139;28;20399;-35
2023/05/05 10:55:26;;;;;;;3.40;1.73;;;20.00;99.90;;;;;;5030998;28;20504;-35
2023/05/05 10:57:52;;;;;;;2.78;1.00;;;20.00;99.90;;;;;;5037046;28;20068;-35
2023/05/05 11:00:48;;;;;;;2.33;0.75;;;19.90;99.90;;;;;;5035014;28;20500;-35
2023/05/05 11:03:17;;;;;;;3.10;0.90;;;19.80;99.90;;;;;;5013607;28;20077;-35
2023/05/05 11:08:41;;;;;;;1.38;0.50;;;19.80;99.90;;;;;;5028194;28;20057;-35
2023/05/05 11:11:09;;;;;;;2.50;0.43;;;19.70;99.90;;;;;;5033260;28;20069;-34
2023/05/05 11:13:35;;;;;;;1.92;0.47;;;19.60;99.90;;;;;;5037777;28;20492;-35
2023/05/05 11:16:01;;;;;;;1.58;0.60;;;19.60;99.90;;;;;;5019989;28;20610;-35
2023/05/05 11:18:36;;;;;;;2.53;0.60;;;19.60;99.90;;;;;;5020750;28;20053;-35
2023/05/05 11:21:14;;;;;;;3.08;1.10;;;19.70;99.90;;;;;;5029253;28;20071;-35
2023/05/05 11:23:40;;;;;;;4.55;3.22;;;19.90;99.90;;;;;;5027287;28;20065;-35
2023/05/05 11:26:07;;;;;;;2.20;0.98;;;19.90;99.90;;;;;;5020761;28;20064;-35
2023/05/05 11:28:33;;;;;;;3.60;1.30;;;19.90;99.90;;;;;;5034406;28;20491;-34
2023/05/05 11:31:01;;;;;;;3.17;1.45;;;20.00;99.90;;;;;;5022042;28;20060;-35
2023/05/05 11:33:32;;;;;;;3.42;1.55;;;19.90;99.90;;;;;;5016571;28;20060;-35
2023/05/05 11:36:07;;;;;;;3.28;1.45;;;19.80;99.90;;;;;;5014821;28;20050;-35
2023/05/05 11:38:58;;;;;;;4.63;2.00;;;19.60;99.90;;;;;;5015901;28;20046;-35
2023/05/05 11:41:42;;;;;;;4.38;2.35;;;19.50;99.90;;;;;;5032246;28;20769;-35
2023/05/05 11:44:15;;;;;;;3.38;1.83;;;19.20;99.90;;;;;;5029738;28;20080;-36
2023/05/05 11:46:50;;;;;;;3.55;2.17;;;18.90;99.90;;;;;;5021101;28;20080;-36
2023/05/05 11:49:35;;;;;;;5.50;2.55;;;18.70;99.90;;;;;;5014562;28;20535;-36
2023/05/05 11:52:05;;;;;;;6.15;2.20;;;18.40;99.90;;;;;;5042459;28;20377;-35
2023/05/05 11:54:33;;;;;;;5.60;2.33;;;18.00;99.90;;;;;;5016258;28;21553;-36
2023/05/05 11:57:07;;;;;;;5.40;2.63;;;17.70;99.90;;;;;;5022038;28;20542;-36
2023/05/05 11:59:48;;;;;;;5.55;2.97;;;17.60;99.90;;;;;;5036008;28;20129;-36
2023/05/05 12:02:20;;;;;;;7.47;2.47;;;17.20;99.90;;;;;;5028811;28;20057;-35
2023/05/05 12:04:47;;;;;;;3.28;1.13;;;16.90;99.90;;;;;;5038848;28;20053;-35
2023/05/05 12:07:24;;;;;;;4.00;1.02;;;16.30;99.90;;;;;;5033890;28;20133;-35
2023/05/05 12:09:50;;;;;;;3.20;1.42;;;15.80;99.90;;;;;;5029673;28;20583;-34
2023/05/05 12:12:16;;;;;;;3.65;1.33;;;15.30;99.90;;;;;;5028008;28;20159;-34
2023/05/05 12:14:53;;;;;;;3.50;1.30;;;15.00;99.90;;;;;;5017136;28;20046;-35
2023/05/05 12:17:19;;;;;;;2.13;0.77;;;14.80;99.90;;;;;;5029923;28;20056;-34
2023/05/05 12:19:52;;;;;;;4.15;1.20;;;14.50;99.90;;;;;;5025368;28;20049;-34
2023/05/05 12:22:26;;;;;;;5.00;1.13;;;14.40;99.90;;;;;;5014632;28;20054;-34
2023/05/05 12:24:59;;;;;;;4.93;1.10;;;14.30;99.90;;;;;;5003696;28;20650;-35
2023/05/05 12:27:27;;;;;;;2.45;1.00;;;14.20;99.90;;;;;;5021547;28;20172;-35
2023/05/05 12:29:56;;;;;;;3.13;0.90;;;14.20;99.90;;;;;;5025840;28;20642;-35
2023/05/05 12:32:29;;;;;;;2.30;0.63;;;14.20;99.90;;;;;;5031784;28;20065;-35
2023/05/05 12:34:58;;;;;;;3.47;0.65;;;14.10;99.90;;;;;;5028570;28;20053;-35
2023/05/05 12:37:25;;;;;;;2.13;0.52;;;14.20;99.90;;;;;;5036871;28;20443;-35
2023/05/05 12:39:53;;;;;;;1.90;0.47;;;14.20;99.90;;;;;;5008827;28;20505;-35
2023/05/05 12:42:20;;;;;;;5.90;0.68;;;14.30;99.90;;;;;;5027056;28;20065;-35
2023/05/05 12:44:45;;;;;;;2.17;0.50;;;14.30;99.90;;;;;;5019669;28;20057;-35
2023/05/05 12:47:12;;;;;;;3.97;0.60;;;14.30;99.90;;;;;;5019232;28;20057;-35
2023/05/05 12:49:49;;;;;;;3.83;0.82;;;14.30;99.90;;;;;;5028068;28;20053;-35
2023/05/05 12:52:15;;;;;;;2.22;0.80;;;14.30;99.90;;;;;;5036323;28;20629;-35